Time;durP1;ratioP1;P1;durP2;ratioP2;P2;SDS_P1;SDS_P2;PMS_P1;PMS_P2;Temp;Humidity;BMP_temperature;BMP_pressure;BME280_temperature;BME280_humidity;BME280_pressure;Samples;Min_cycle;Max_cycle;Signal;HPM_P1;HPM_P2
2022/08/29 00:01:28;;;;;;;7.33;6.73;;;;;;;17.96;100.00;100426.00;4976924;28;20197;-76
2022/08/29 00:03:54;;;;;;;7.43;6.73;;;;;;;17.94;100.00;100425.19;4975977;28;20240;-75
2022/08/29 00:06:20;;;;;;;7.77;6.40;;;;;;;17.92;100.00;100419.16;4967231;28;20232;-74
2022/08/29 00:08:45;;;;;;;7.87;6.60;;;;;;;17.88;100.00;100421.94;4970277;28;20196;-76
2022/08/29 00:11:11;;;;;;;8.10;7.03;;;;;;;17.80;100.00;100422.22;4968465;28;20193;-76
2022/08/29 00:13:37;;;;;;;7.20;6.37;;;;;;;17.76;100.00;100423.28;4979525;28;20248;-76
2022/08/29 00:16:02;;;;;;;6.83;6.13;;;;;;;17.74;100.00;100419.84;4966307;28;20216;-75
2022/08/29 00:18:28;;;;;;;8.20;6.80;;;;;;;17.68;100.00;100421.78;4967857;28;20250;-76
2022/08/29 00:20:54;;;;;;;9.47;6.27;;;;;;;17.67;100.00;100429.69;4968372;28;20671;-77
2022/08/29 00:23:20;;;;;;;7.43;6.67;;;;;;;17.63;100.00;100430.72;4970829;28;20193;-76
2022/08/29 00:25:45;;;;;;;7.33;6.70;;;;;;;17.58;100.00;100427.41;4975834;28;20214;-78
2022/08/29 00:28:11;;;;;;;6.87;5.90;;;;;;;17.57;100.00;100431.78;4977832;28;20223;-77
2022/08/29 00:30:37;;;;;;;10.43;6.60;;;;;;;17.55;100.00;100431.00;4973723;28;20576;-75
2022/08/29 00:33:02;;;;;;;7.53;6.83;;;;;;;17.54;100.00;100433.66;4972140;28;20209;-76
2022/08/29 00:35:32;;;;;;;6.87;6.17;;;;;;;17.49;100.00;100432.06;4971264;28;20208;-78
2022/08/29 00:37:57;;;;;;;7.57;6.40;;;;;;;17.44;100.00;100428.75;4974318;28;20201;-76
2022/08/29 00:40:36;;;;;;;6.13;5.63;;;;;;;17.44;100.00;100438.38;4967652;28;20277;-75
2022/08/29 00:43:04;;;;;;;6.80;6.00;;;;;;;17.40;100.00;100431.53;4972474;28;20649;-76
2022/08/29 00:45:31;;;;;;;7.00;6.30;;;;;;;17.40;100.00;100436.75;4966966;28;20210;-75
2022/08/29 00:48:01;;;;;;;6.87;6.27;;;;;;;17.35;100.00;100429.91;4970463;28;20201;-76
2022/08/29 00:50:39;;;;;;;9.43;6.67;;;;;;;17.30;100.00;100436.22;4974911;28;20975;-76
2022/08/29 00:53:09;;;;;;;8.37;6.50;;;;;;;17.26;100.00;100426.75;4972656;28;20209;-75
2022/08/29 00:55:37;;;;;;;7.07;6.37;;;;;;;17.23;100.00;100427.75;4967576;28;20215;-76
2022/08/29 00:58:30;;;;;;;7.73;7.03;;;;;;;17.19;100.00;100426.13;4972107;28;20189;-75
2022/08/29 01:00:56;;;;;;;7.50;6.77;;;;;;;17.15;100.00;100429.78;4970543;28;20636;-76
2022/08/29 01:03:21;;;;;;;9.17;6.47;;;;;;;17.09;100.00;100430.84;4969717;28;20216;-78
2022/08/29 01:05:47;;;;;;;9.57;7.40;;;;;;;17.09;100.00;100433.47;4973077;28;20773;-75
2022/08/29 01:08:13;;;;;;;8.77;7.20;;;;;;;17.09;100.00;100435.19;4969599;28;20225;-75
2022/08/29 01:13:31;;;;;;;7.80;7.00;;;;;;;17.00;100.00;100437.22;4969637;28;20772;-74
2022/08/29 01:15:57;;;;;;;7.80;7.10;;;;;;;16.98;100.00;100438.16;4967893;28;20224;-77
2022/08/29 01:18:25;;;;;;;8.43;7.60;;;;;;;16.92;100.00;100442.69;4975129;28;20185;-75
2022/08/29 01:21:05;;;;;;;7.80;7.10;;;;;;;16.92;100.00;100441.81;4971927;28;20189;-77
2022/08/29 01:23:37;;;;;;;7.83;7.13;;;;;;;16.87;100.00;100447.19;4961567;28;20190;-77
2022/08/29 01:26:03;;;;;;;7.97;7.17;;;;;;;16.80;100.00;100437.81;4959983;28;20221;-75
2022/08/29 01:28:39;;;;;;;8.30;7.10;;;;;;;16.75;100.00;100444.97;4970865;28;20552;-76
2022/08/29 01:31:12;;;;;;;7.87;7.00;;;;;;;16.73;100.00;100441.56;4950737;28;20185;-77
2022/08/29 01:33:59;;;;;;;7.70;6.93;;;;;;;16.71;100.00;100445.97;4963080;28;20264;-75
2022/08/29 01:36:36;;;;;;;8.80;7.50;;;;;;;16.67;100.00;100445.22;4963234;28;20323;-76
2022/08/29 01:39:03;;;;;;;9.87;7.53;;;;;;;16.67;100.00;100442.63;4970968;28;20197;-74
2022/08/29 01:41:29;;;;;;;10.03;8.13;;;;;;;16.62;100.00;100444.50;4967388;28;20265;-77
2022/08/29 01:43:55;;;;;;;7.87;7.17;;;;;;;16.58;100.00;100449.00;4969112;28;20673;-75
2022/08/29 01:46:27;;;;;;;9.63;7.83;;;;;;;16.54;100.00;100451.75;4969272;28;20236;-78
2022/08/29 01:48:53;;;;;;;8.30;7.40;;;;;;;16.53;100.00;100450.88;4974062;28;20193;-77
2022/08/29 01:51:19;;;;;;;8.27;7.30;;;;;;;16.52;100.00;100449.16;4967643;28;20200;-76
2022/08/29 01:53:44;;;;;;;9.03;8.13;;;;;;;16.49;100.00;100454.47;4977077;28;20567;-76
2022/08/29 01:56:17;;;;;;;7.97;7.17;;;;;;;16.43;100.00;100452.06;4960639;28;20209;-76
2022/08/29 01:58:44;;;;;;;7.43;6.73;;;;;;;16.39;100.00;100458.28;4968293;28;20182;-76
2022/08/29 02:01:13;;;;;;;7.83;6.97;;;;;;;16.38;100.00;100462.66;4965281;28;20320;-76
2022/08/29 02:03:38;;;;;;;7.20;6.57;;;;;;;16.34;100.00;100454.94;4969695;28;20194;-76
2022/08/29 02:06:04;;;;;;;7.47;6.57;;;;;;;16.30;100.00;100457.69;4967848;28;20217;-76
2022/08/29 02:08:30;;;;;;;7.87;7.07;;;;;;;16.25;100.00;100462.16;4969443;28;20186;-76
2022/08/29 02:10:57;;;;;;;10.23;6.80;;;;;;;16.26;100.00;100463.88;4979626;28;20769;-75
2022/08/29 02:13:23;;;;;;;7.57;6.87;;;;;;;16.27;100.00;100455.16;4963583;28;20260;-76
2022/08/29 02:15:49;;;;;;;9.03;7.37;;;;;;;16.25;100.00;100459.56;4977030;28;20643;-76
2022/08/29 02:18:15;;;;;;;7.23;6.53;;;;;;;16.23;100.00;100455.28;4968476;28;20199;-76
2022/08/29 02:20:40;;;;;;;7.40;6.80;;;;;;;16.23;100.00;100455.28;4966803;28;20190;-77
2022/08/29 02:23:06;;;;;;;8.17;7.00;;;;;;;16.19;100.00;100458.88;4968179;28;20562;-77
2022/08/29 02:25:40;;;;;;;9.63;7.30;;;;;;;16.17;100.00;100458.06;4965557;28;20202;-76
2022/08/29 02:28:06;;;;;;;7.80;6.87;;;;;;;16.13;100.00;100463.38;4966964;28;20189;-77
2022/08/29 02:30:32;;;;;;;9.50;6.97;;;;;;;16.13;100.00;100467.75;4969144;28;20248;-76
2022/08/29 02:32:57;;;;;;;9.67;6.77;;;;;;;16.10;100.00;100462.63;4965298;28;20638;-75
2022/08/29 02:35:22;;;;;;;8.77;6.97;;;;;;;16.08;100.00;100457.47;4966138;28;20216;-76
2022/08/29 02:37:48;;;;;;;7.77;7.07;;;;;;;16.07;100.00;100463.56;4966180;28;20237;-76
2022/08/29 02:40:13;;;;;;;9.73;7.10;;;;;;;16.02;100.00;100464.63;4973934;28;20177;-76
2022/08/29 02:42:39;;;;;;;7.80;6.67;;;;;;;16.00;100.00;100465.50;4970522;28;20190;-76
2022/08/29 02:45:04;;;;;;;6.80;6.10;;;;;;;16.00;100.00;100459.41;4964059;28;20234;-75
2022/08/29 02:47:35;;;;;;;7.47;6.73;;;;;;;15.92;100.00;100464.84;4965964;28;20251;-76
2022/08/29 02:50:04;;;;;;;10.07;6.43;;;;;;;15.91;100.00;100472.75;4973817;28;20446;-75
2022/08/29 02:52:30;;;;;;;8.43;6.53;;;;;;;15.88;100.00;100470.22;4968796;28;20197;-76
2022/08/29 02:54:55;;;;;;;9.77;6.80;;;;;;;15.84;100.00;100470.25;4964125;28;20733;-75
2022/08/29 02:57:21;;;;;;;7.13;6.13;;;;;;;15.80;100.00;100476.50;4966479;28;20194;-77
2022/08/29 02:59:46;;;;;;;7.83;6.10;;;;;;;15.79;100.00;100480.00;4972420;28;20238;-76
2022/08/29 03:02:11;;;;;;;10.23;6.30;;;;;;;15.75;100.00;100478.34;4979810;28;20194;-75
2022/08/29 03:04:37;;;;;;;6.63;6.00;;;;;;;15.72;100.00;100481.03;4977632;28;20239;-76
2022/08/29 03:07:04;;;;;;;6.87;5.77;;;;;;;15.74;100.00;100478.38;4972537;28;20280;-78
2022/08/29 03:09:30;;;;;;;6.70;6.00;;;;;;;15.71;100.00;100471.50;4975678;28;20188;-75
2022/08/29 03:11:55;;;;;;;10.20;6.13;;;;;;;15.68;100.00;100479.41;4973766;28;20739;-76
2022/08/29 03:14:21;;;;;;;8.97;5.40;;;;;;;15.63;100.00;100476.09;4972430;28;20217;-77
2022/08/29 03:16:47;;;;;;;7.80;5.47;;;;;;;15.62;100.00;100477.81;4969522;28;20224;-78
2022/08/29 03:19:12;;;;;;;7.53;5.47;;;;;;;15.60;100.00;100478.78;4971304;28;20186;-76
2022/08/29 03:21:37;;;;;;;5.57;4.90;;;;;;;15.56;100.00;100480.63;4971737;28;20191;-75
2022/08/29 03:24:03;;;;;;;7.67;5.60;;;;;;;15.55;100.00;100473.69;4972837;28;20195;-75
2022/08/29 03:26:29;;;;;;;9.00;5.90;;;;;;;15.53;100.00;100468.50;4982181;28;20205;-76
2022/08/29 03:28:54;;;;;;;8.53;5.77;;;;;;;15.53;100.00;100478.09;4975176;28;20223;-76
2022/08/29 03:31:20;;;;;;;7.47;5.73;;;;;;;15.50;100.00;100470.34;4979190;28;20188;-77
2022/08/29 03:33:45;;;;;;;8.13;5.80;;;;;;;15.50;100.00;100465.94;4977141;28;20605;-78
2022/08/29 03:36:11;;;;;;;8.90;6.50;;;;;;;15.45;100.00;100466.97;4962860;28;20233;-77
2022/08/29 03:38:39;;;;;;;9.70;5.67;;;;;;;15.43;100.00;100467.03;4979418;28;20188;-76
2022/08/29 03:41:05;;;;;;;7.53;5.50;;;;;;;15.44;100.00;100475.69;4979084;28;20257;-75
2022/08/29 03:43:31;;;;;;;7.97;5.50;;;;;;;15.38;100.00;100474.09;4971821;28;20280;-76
2022/08/29 03:45:56;;;;;;;8.87;5.57;;;;;;;15.37;100.00;100464.56;4970504;28;20225;-77
2022/08/29 03:48:21;;;;;;;8.73;5.53;;;;;;;15.33;100.00;100476.00;4977119;28;20222;-77
2022/08/29 03:50:47;;;;;;;7.73;5.33;;;;;;;15.28;100.00;100467.44;4969777;28;20208;-75
2022/08/29 03:53:12;;;;;;;6.37;5.13;;;;;;;15.24;100.00;100464.91;4971362;28;20214;-75
2022/08/29 03:55:38;;;;;;;8.27;4.90;;;;;;;15.21;100.00;100464.97;4969335;28;20216;-76
2022/08/29 03:58:04;;;;;;;6.10;5.20;;;;;;;15.19;100.00;100463.31;4977283;28;20660;-76
2022/08/29 04:00:30;;;;;;;5.90;5.30;;;;;;;15.16;100.00;100468.59;4970434;28;20200;-76
2022/08/29 04:02:57;;;;;;;6.50;4.50;;;;;;;15.14;100.00;100465.16;4973309;28;20684;-79
2022/08/29 04:05:23;;;;;;;8.93;5.40;;;;;;;15.14;100.00;100468.63;4974907;28;20212;-76
2022/08/29 04:07:58;;;;;;;6.80;5.07;;;;;;;15.11;100.00;100473.09;4976713;28;20195;-75
2022/08/29 04:10:30;;;;;;;6.87;4.87;;;;;;;15.07;100.00;100470.53;4969835;28;20255;-75
2022/08/29 04:12:57;;;;;;;5.57;4.70;;;;;;;15.06;100.00;100471.44;4982129;28;20193;-75
2022/08/29 04:15:23;;;;;;;7.03;4.93;;;;;;;15.06;100.00;100491.41;4976360;28;20269;-75
2022/08/29 04:17:55;;;;;;;7.90;4.50;;;;;;;15.05;100.00;100476.69;4972786;28;20205;-76
2022/08/29 04:20:26;;;;;;;9.03;4.60;;;;;;;15.03;100.00;100486.31;4967073;28;20200;-76
2022/08/29 04:22:53;;;;;;;7.93;4.50;;;;;;;15.00;100.00;100468.97;4982855;28;20665;-76
2022/08/29 04:25:19;;;;;;;5.67;4.43;;;;;;;14.99;100.00;100469.00;4973692;28;20221;-76
2022/08/29 04:27:44;;;;;;;6.10;4.30;;;;;;;14.97;100.00;100476.88;4990066;28;20685;-75
2022/08/29 04:30:14;;;;;;;7.93;4.50;;;;;;;14.96;100.00;100471.69;4977554;28;20207;-77
2022/08/29 04:32:40;;;;;;;7.23;4.77;;;;;;;14.96;100.00;100477.78;4973206;28;20579;-75
2022/08/29 04:35:07;;;;;;;8.10;4.73;;;;;;;14.94;100.00;100472.59;4967492;28;20236;-78
2022/08/29 04:37:32;;;;;;;7.33;4.40;;;;;;;14.93;100.00;100476.06;4967554;28;20234;-76
2022/08/29 04:39:58;;;;;;;5.07;4.30;;;;;;;14.92;100.00;100476.97;4970295;28;21166;-75
2022/08/29 04:42:23;;;;;;;6.13;4.37;;;;;;;14.92;100.00;100476.13;4972258;28;20654;-76
2022/08/29 04:44:49;;;;;;;6.10;4.67;;;;;;;14.91;100.00;100477.84;4971313;28;20207;-74
2022/08/29 04:47:14;;;;;;;7.20;4.67;;;;;;;14.89;100.00;100479.66;4967922;28;20190;-75
2022/08/29 04:49:41;;;;;;;8.10;4.20;;;;;;;14.93;100.00;100488.25;4974691;28;20280;-75
2022/08/29 04:52:07;;;;;;;7.47;4.63;;;;;;;14.91;100.00;100488.28;4972746;28;20500;-78
2022/08/29 04:54:33;;;;;;;6.87;4.40;;;;;;;14.90;100.00;100486.56;4966469;28;20281;-76
2022/08/29 04:57:02;;;;;;;5.93;4.60;;;;;;;14.91;100.00;100493.50;4974899;28;20190;-80
2022/08/29 04:59:28;;;;;;;5.80;4.30;;;;;;;14.92;100.00;100491.75;4972318;28;20208;-77
2022/08/29 05:01:53;;;;;;;6.77;4.67;;;;;;;14.91;100.00;100492.66;4983709;28;20569;-75
2022/08/29 05:04:19;;;;;;;9.10;4.90;;;;;;;14.92;100.00;100490.00;4966528;28;20191;-75
2022/08/29 05:06:44;;;;;;;9.07;5.10;;;;;;;14.92;100.00;100496.97;4971167;28;20740;-76
2022/08/29 05:09:09;;;;;;;6.30;4.23;;;;;;;14.94;100.00;100508.22;4972248;28;20196;-75
2022/08/29 05:11:35;;;;;;;6.67;4.23;;;;;;;14.96;100.00;100513.38;4967109;28;20189;-75
2022/08/29 05:14:01;;;;;;;6.57;4.00;;;;;;;14.96;100.00;100513.38;4976646;28;20215;-75
2022/08/29 05:16:28;;;;;;;6.57;3.97;;;;;;;14.96;100.00;100518.59;4969303;28;20361;-77
2022/08/29 05:18:55;;;;;;;6.20;4.13;;;;;;;14.99;100.00;100514.16;4974423;28;20581;-75
2022/08/29 05:21:33;;;;;;;5.57;3.97;;;;;;;15.03;100.00;100517.56;4966908;28;20207;-79
2022/08/29 05:23:58;;;;;;;5.83;3.53;;;;;;;15.05;100.00;100521.00;4972114;28;20221;-77
2022/08/29 05:26:30;;;;;;;8.43;4.70;;;;;;;15.13;100.00;100523.41;4970423;28;20694;-78
2022/08/29 05:28:55;;;;;;;5.63;3.80;;;;;;;15.15;100.00;100519.88;4975442;28;20195;-75
2022/08/29 05:31:21;;;;;;;9.23;4.00;;;;;;;15.21;100.00;100522.31;4964490;28;20303;-79
2022/08/29 05:33:47;;;;;;;7.30;4.10;;;;;;;15.27;100.00;100516.13;4966278;28;20706;-74
2022/08/29 05:36:12;;;;;;;5.87;4.27;;;;;;;15.34;100.00;100520.28;4965009;28;20688;-75
2022/08/29 05:38:38;;;;;;;6.33;4.57;;;;;;;15.42;100.00;100524.47;4964413;28;20190;-76
2022/08/29 05:41:03;;;;;;;7.80;4.63;;;;;;;15.57;100.00;100525.81;4969517;28;20212;-76
2022/08/29 05:43:28;;;;;;;5.93;4.20;;;;;;;16.03;100.00;100522.00;4964550;28;20284;-74
2022/08/29 05:46:02;;;;;;;6.80;4.70;;;;;;;16.72;100.00;100519.09;4959823;28;20240;-75
2022/08/29 05:48:28;;;;;;;6.80;4.70;;;;;;;17.32;100.00;100518.13;4973030;28;20193;-75
2022/08/29 05:50:54;;;;;;;7.53;4.60;;;;;;;17.76;100.00;100515.72;4981243;28;20680;-75
2022/08/29 05:53:19;;;;;;;5.40;4.20;;;;;;;17.73;100.00;100515.00;4971030;28;20210;-76
2022/08/29 05:55:45;;;;;;;6.63;4.57;;;;;;;17.44;100.00;100511.63;4965795;28;20781;-75
2022/08/29 05:58:11;;;;;;;7.73;4.63;;;;;;;17.52;100.00;100509.59;4973222;28;20189;-78
2022/08/29 06:00:41;;;;;;;6.40;4.00;;;;;;;17.90;100.00;100512.63;4969569;28;20211;-77
2022/08/29 06:03:07;;;;;;;6.77;4.70;;;;;;;18.24;99.74;100515.81;4970553;28;20185;-76
2022/08/29 06:05:33;;;;;;;6.33;4.60;;;;;;;18.68;97.20;100515.88;4976387;28;20590;-75
2022/08/29 06:07:58;;;;;;;6.50;4.70;;;;;;;18.74;95.81;100522.63;4971796;28;20197;-77
2022/08/29 06:10:24;;;;;;;5.47;4.47;;;;;;;18.67;96.26;100518.56;4973750;28;20205;-75
2022/08/29 06:12:49;;;;;;;6.17;4.87;;;;;;;18.66;95.80;100524.72;4975338;28;20279;-76
2022/08/29 06:15:14;;;;;;;7.07;4.60;;;;;;;18.80;96.16;100521.53;4970823;28;20716;-77
2022/08/29 06:17:40;;;;;;;7.87;4.80;;;;;;;19.25;93.75;100532.91;4982102;28;20254;-75
2022/08/29 06:20:08;;;;;;;8.13;4.63;;;;;;;19.94;92.02;100523.84;4966518;28;20553;-76
2022/08/29 06:22:34;;;;;;;6.23;4.63;;;;;;;20.43;89.47;100525.19;4967260;28;20203;-75
2022/08/29 06:25:00;;;;;;;6.53;4.03;;;;;;;20.75;88.38;100528.06;4966937;28;20685;-75
2022/08/29 06:27:25;;;;;;;7.60;4.23;;;;;;;20.99;87.25;100528.69;4967610;28;20221;-79
2022/08/29 06:29:51;;;;;;;10.77;4.13;;;;;;;21.03;85.94;100524.97;4974758;28;20204;-76
2022/08/29 06:32:16;;;;;;;5.67;4.10;;;;;;;21.27;85.61;100529.97;4965890;28;20251;-76
2022/08/29 06:34:42;;;;;;;9.00;4.43;;;;;;;21.52;84.78;100531.34;4967857;28;20237;-76
2022/08/29 06:37:08;;;;;;;5.23;3.53;;;;;;;21.51;84.30;100525.25;4969239;28;20306;-76
2022/08/29 06:39:33;;;;;;;4.87;3.60;;;;;;;21.83;83.43;100524.53;4982918;28;20196;-75
2022/08/29 06:41:59;;;;;;;6.30;3.73;;;;;;;21.89;82.39;100527.69;4984664;28;20626;-76
2022/08/29 06:44:25;;;;;;;6.97;4.30;;;;;;;22.04;82.01;100528.69;4976554;28;20189;-75
2022/08/29 06:46:51;;;;;;;5.93;3.77;;;;;;;22.38;81.19;100531.25;4963011;28;20198;-78
2022/08/29 06:49:18;;;;;;;6.07;3.57;;;;;;;22.63;81.14;100535.22;4971455;28;20276;-77
2022/08/29 06:51:47;;;;;;;6.03;3.97;;;;;;;22.81;80.19;100536.81;4979323;28;20193;-76
2022/08/29 06:54:14;;;;;;;6.10;3.63;;;;;;;22.78;79.58;100544.06;4977260;28;20220;-75
2022/08/29 06:56:40;;;;;;;3.57;3.03;;;;;;;23.13;78.62;100546.50;4977033;28;20224;-76
2022/08/29 06:59:06;;;;;;;5.30;3.17;;;;;;;22.97;79.04;100551.78;4969916;28;20198;-78
2022/08/29 07:01:31;;;;;;;5.97;3.50;;;;;;;23.03;79.04;100542.66;4969077;28;20190;-75
2022/08/29 07:03:58;;;;;;;4.63;3.20;;;;;;;23.10;78.46;100549.31;4984449;28;20645;-76
2022/08/29 07:06:24;;;;;;;9.53;3.60;;;;;;;23.18;78.56;100552.34;4973148;28;20224;-75
2022/08/29 07:08:50;;;;;;;5.27;3.60;;;;;;;22.89;77.71;100549.56;4972667;28;20209;-76
2022/08/29 07:11:16;;;;;;;5.83;3.33;;;;;;;22.71;78.22;100551.47;4975859;28;20186;-78
2022/08/29 07:13:41;;;;;;;3.73;3.03;;;;;;;22.65;79.59;100552.66;4979936;28;20292;-75
2022/08/29 07:16:09;;;;;;;4.30;3.57;;;;;;;21.95;81.01;100549.38;4970030;28;20825;-77
2022/08/29 07:18:36;;;;;;;5.07;2.70;;;;;;;21.40;82.24;100546.84;4970704;28;20185;-76
2022/08/29 07:21:10;;;;;;;6.70;3.80;;;;;;;21.09;84.47;100551.00;4978180;28;20206;-75
2022/08/29 07:23:36;;;;;;;5.53;3.43;;;;;;;20.56;85.88;100552.59;4986033;28;20188;-76
2022/08/29 07:26:13;;;;;;;5.37;3.53;;;;;;;20.85;86.20;100553.91;4976123;28;20605;-78
2022/08/29 07:28:38;;;;;;;5.87;3.27;;;;;;;21.03;84.99;100551.28;4979204;28;20197;-76
2022/08/29 07:31:04;;;;;;;6.97;3.73;;;;;;;20.90;85.99;100558.06;4973199;28;20311;-74
2022/08/29 07:33:30;;;;;;;6.30;3.80;;;;;;;21.24;85.05;100551.16;4978611;28;20208;-76
2022/08/29 07:35:56;;;;;;;14.97;4.67;;;;;;;21.02;85.21;100563.59;4972994;28;20577;-76
2022/08/29 07:38:21;;;;;;;7.50;3.97;;;;;;;21.06;85.33;100553.78;4984903;28;20196;-75
2022/08/29 07:40:47;;;;;;;4.20;3.10;;;;;;;21.00;85.25;100549.66;4978835;28;20197;-77
2022/08/29 07:43:12;;;;;;;4.47;3.30;;;;;;;21.22;85.47;100542.50;4975457;28;20274;-77
2022/08/29 07:45:38;;;;;;;4.47;3.10;;;;;;;21.42;85.13;100550.25;4979078;28;20216;-76
2022/08/29 07:48:04;;;;;;;4.60;3.10;;;;;;;21.49;84.99;100542.91;4965242;28;20185;-75
2022/08/29 07:50:30;;;;;;;7.27;3.20;;;;;;;21.41;85.01;100543.28;4976893;28;20258;-75
2022/08/29 07:52:55;;;;;;;6.50;3.87;;;;;;;21.26;86.09;100549.31;4964844;28;20190;-78
2022/08/29 07:55:21;;;;;;;5.70;3.77;;;;;;;21.08;87.02;100538.75;4966738;28;20205;-76
2022/08/29 07:57:50;;;;;;;4.97;3.63;;;;;;;21.15;87.34;100540.19;4970912;28;20248;-76
2022/08/29 08:00:16;;;;;;;6.30;3.33;;;;;;;21.20;87.69;100539.94;4967960;28;20547;-76
2022/08/29 08:02:41;;;;;;;5.93;2.90;;;;;;;20.91;87.55;100542.22;4972457;28;20186;-77
2022/08/29 08:05:07;;;;;;;6.23;3.60;;;;;;;20.91;88.48;100539.59;4975677;28;20735;-75
2022/08/29 08:07:33;;;;;;;7.47;3.23;;;;;;;21.05;88.23;100530.19;4972649;28;20193;-76
2022/08/29 08:09:59;;;;;;;5.63;3.30;;;;;;;21.30;87.41;100548.25;4967056;28;20193;-75
2022/08/29 08:12:25;;;;;;;3.97;3.30;;;;;;;21.12;88.19;100547.34;4972346;28;20209;-75
2022/08/29 08:14:51;;;;;;;6.73;3.60;;;;;;;20.98;87.87;100543.63;4976164;28;20226;-76
2022/08/29 08:17:17;;;;;;;6.33;3.30;;;;;;;20.83;88.38;100550.50;4976801;28;20276;-76
2022/08/29 08:19:43;;;;;;;4.73;3.13;;;;;;;20.96;88.99;100544.63;4978975;28;20224;-76
2022/08/29 08:22:08;;;;;;;5.03;3.60;;;;;;;21.16;89.15;100546.28;4973869;28;20251;-77
2022/08/29 08:24:34;;;;;;;5.20;3.43;;;;;;;21.30;88.52;100556.13;4971247;28;20186;-76
2022/08/29 08:26:59;;;;;;;6.17;3.50;;;;;;;21.21;87.89;100552.19;4968116;28;20189;-74
2022/08/29 08:29:25;;;;;;;8.60;4.03;;;;;;;21.24;87.37;100545.91;4963660;28;20693;-76
2022/08/29 08:31:51;;;;;;;6.53;3.77;;;;;;;21.36;87.12;100549.72;4966484;28;20194;-78
2022/08/29 08:34:17;;;;;;;4.30;3.30;;;;;;;21.59;86.70;100569.63;4968479;28;20625;-77
2022/08/29 08:36:44;;;;;;;4.93;3.10;;;;;;;21.59;86.33;100559.09;4968926;28;20595;-76
2022/08/29 08:39:11;;;;;;;5.30;3.43;;;;;;;21.78;86.12;100556.38;4969082;28;20194;-76
2022/08/29 08:41:52;;;;;;;4.53;3.30;;;;;;;21.90;85.46;100547.84;4973815;28;20189;-76
2022/08/29 08:44:20;;;;;;;6.07;3.03;;;;;;;22.14;85.62;100549.25;4965029;28;20182;-75
2022/08/29 08:46:51;;;;;;;5.83;3.13;;;;;;;22.22;85.07;100544.44;4970837;28;20716;-76
2022/08/29 08:49:28;;;;;;;6.17;3.57;;;;;;;22.34;84.67;100543.78;4970269;28;20196;-77
2022/08/29 08:52:00;;;;;;;5.20;3.07;;;;;;;22.55;84.80;100547.97;4970004;28;20200;-76
2022/08/29 08:54:31;;;;;;;5.30;3.80;;;;;;;22.52;84.75;100557.75;4966409;28;20217;-76
2022/08/29 08:57:07;;;;;;;10.23;3.87;;;;;;;22.51;85.51;100555.22;4966639;28;20190;-75
2022/08/29 08:59:33;;;;;;;6.30;3.80;;;;;;;22.55;85.75;100559.38;4965032;28;20559;-75
2022/08/29 09:02:20;;;;;;;5.17;3.10;;;;;;;22.56;85.08;100560.22;4965806;28;20189;-75
2022/08/29 09:05:42;;;;;;;3.27;2.80;;;;;;;22.79;85.10;100546.59;4971895;28;20298;-76
2022/08/29 09:08:16;;;;;;;7.70;3.93;;;;;;;22.91;84.14;100546.88;4908793;29;20968;-77
2022/08/29 09:10:59;;;;;;;5.47;3.33;;;;;;;22.86;84.47;100552.38;4921822;29;21566;-76
2022/08/29 09:14:00;;;;;;;7.67;3.70;;;;;;;23.02;84.30;100547.09;4950112;28;20217;-74
2022/08/29 09:16:32;;;;;;;4.77;3.30;;;;;;;23.10;83.96;100542.22;4967245;28;20212;-77
2022/08/29 09:19:04;;;;;;;5.60;3.43;;;;;;;23.16;83.65;100551.56;4977880;28;20610;-75
2022/08/29 09:21:37;;;;;;;5.10;3.07;;;;;;;23.13;83.53;100534.13;4966618;28;20186;-75
2022/08/29 09:24:07;;;;;;;4.70;3.73;;;;;;;23.19;84.05;100538.19;4964688;28;20182;-76
2022/08/29 09:26:33;;;;;;;4.60;3.40;;;;;;;23.16;83.28;100542.81;4967360;28;20267;-76
2022/08/29 09:28:59;;;;;;;6.40;3.87;;;;;;;23.03;83.78;100542.66;4970363;28;20176;-75
2022/08/29 09:31:33;;;;;;;5.03;3.60;;;;;;;23.25;83.87;100544.94;4970785;28;20684;-75
2022/08/29 09:34:36;;;;;;;6.93;3.53;;;;;;;23.29;83.70;100546.47;4969364;28;20828;-75
2022/08/29 09:37:03;;;;;;;4.73;3.67;;;;;;;23.40;83.63;100533.47;4967539;28;20673;-76
2022/08/29 09:39:31;;;;;;;5.50;4.03;;;;;;;23.32;83.72;100545.44;4968623;28;20259;-76
2022/08/29 09:42:18;;;;;;;6.07;3.80;;;;;;;23.31;84.03;100549.88;4966178;28;20213;-76
2022/08/29 09:44:52;;;;;;;5.13;3.90;;;;;;;23.25;83.74;100535.25;4967522;28;20323;-75
2022/08/29 09:47:28;;;;;;;12.97;4.90;;;;;;;23.11;83.86;100543.09;4967674;28;20185;-76
2022/08/29 09:50:09;;;;;;;5.93;4.10;;;;;;;23.24;84.04;100530.91;4972471;28;20193;-76
2022/08/29 09:52:39;;;;;;;6.63;4.10;;;;;;;23.46;84.07;100542.00;4970877;28;20626;-76
2022/08/29 09:55:18;;;;;;;6.80;4.37;;;;;;;23.68;83.45;100538.91;4963621;28;20249;-75
2022/08/29 09:57:50;;;;;;;6.50;4.07;;;;;;;23.70;82.46;100535.22;4966976;28;20186;-76
2022/08/29 10:00:23;;;;;;;5.10;4.33;;;;;;;23.69;83.09;100527.41;4978450;28;20202;-76
2022/08/29 10:02:52;;;;;;;6.23;3.83;;;;;;;23.69;83.10;100525.59;4966454;28;20186;-75
2022/08/29 10:05:43;;;;;;;5.73;4.40;;;;;;;23.66;83.35;100528.44;4963187;28;20229;-76
2022/08/29 10:08:37;;;;;;;6.20;4.33;;;;;;;23.69;83.27;100522.97;4960782;28;20272;-77
2022/08/29 10:11:22;;;;;;;7.93;4.57;;;;;;;23.62;83.34;100512.84;4968523;28;20197;-76
2022/08/29 10:14:02;;;;;;;5.67;4.20;;;;;;;23.61;82.81;100517.31;4963396;28;20401;-76
2022/08/29 10:16:43;;;;;;;6.67;4.30;;;;;;;23.73;83.48;100519.19;4963483;28;20205;-75
2022/08/29 10:19:20;;;;;;;9.17;4.73;;;;;;;23.70;82.33;100516.72;4965648;28;20228;-77
2022/08/29 10:22:12;;;;;;;6.20;4.07;;;;;;;23.85;82.90;100517.59;4966448;28;20189;-77
2022/08/29 10:25:07;;;;;;;4.73;4.13;;;;;;;24.01;83.18;100511.41;4969344;28;20190;-75
2022/08/29 10:27:42;;;;;;;6.93;4.07;;;;;;;24.01;82.58;100519.34;4983277;28;20181;-74
2022/08/29 10:30:22;;;;;;;5.30;4.40;;;;;;;24.04;82.75;100524.44;4970412;28;20200;-75
2022/08/29 10:32:53;;;;;;;5.57;4.40;;;;;;;24.12;82.95;100522.16;4952529;28;20773;-75
2022/08/29 10:35:54;;;;;;;8.27;4.33;;;;;;;24.05;82.81;100515.53;4952114;29;20297;-76
2022/08/29 10:38:31;;;;;;;7.13;4.47;;;;;;;24.23;82.66;100510.91;4952905;29;20198;-75
2022/08/29 10:41:24;;;;;;;6.70;4.30;;;;;;;24.40;82.70;100516.94;4982608;28;20216;-78
2022/08/29 10:44:24;;;;;;;11.40;4.57;;;;;;;24.39;81.73;100513.44;4967190;28;20277;-77
2022/08/29 10:47:09;;;;;;;7.30;4.63;;;;;;;24.46;81.70;100509.47;4993754;28;20243;-76
2022/08/29 10:49:50;;;;;;;6.87;4.10;;;;;;;24.57;81.74;100507.91;4977884;28;20197;-76
2022/08/29 10:52:37;;;;;;;7.37;4.50;;;;;;;24.46;81.80;100508.59;4968402;28;20208;-76
2022/08/29 10:55:21;;;;;;;4.70;3.70;;;;;;;24.40;81.10;100507.19;4968677;28;20229;-75
2022/08/29 10:58:00;;;;;;;6.50;4.20;;;;;;;24.65;81.32;100510.94;4979155;28;20193;-76
2022/08/29 11:00:51;;;;;;;5.83;4.80;;;;;;;24.63;81.38;100507.53;4970078;28;20193;-78
2022/08/29 11:03:25;;;;;;;5.87;4.03;;;;;;;24.57;80.69;100502.63;4970890;28;20245;-78
2022/08/29 11:06:00;;;;;;;5.13;4.37;;;;;;;24.62;81.30;100506.66;4970791;28;20210;-78
2022/08/29 11:08:33;;;;;;;6.93;4.77;;;;;;;24.70;81.39;100487.66;4971061;28;20182;-78
2022/08/29 11:10:58;;;;;;;7.27;4.30;;;;;;;24.80;81.11;100487.91;4967361;28;20248;-78
2022/08/29 11:13:33;;;;;;;5.07;3.93;;;;;;;24.91;81.46;100490.69;4973834;28;20288;-76
2022/08/29 11:16:07;;;;;;;5.03;4.47;;;;;;;25.01;79.85;100479.53;4977653;28;20676;-77
2022/08/29 11:18:43;;;;;;;8.27;4.63;;;;;;;25.13;79.89;100488.41;4976575;28;20236;-75
2022/08/29 11:21:21;;;;;;;5.03;4.17;;;;;;;25.05;79.96;100473.91;4973151;28;20190;-76
2022/08/29 11:23:47;;;;;;;8.80;4.67;;;;;;;24.98;79.57;100475.25;4980836;28;20564;-76
2022/08/29 11:26:21;;;;;;;7.63;4.70;;;;;;;25.03;78.57;100475.81;4978685;28;20280;-76
2022/08/29 11:29:08;;;;;;;5.13;4.00;;;;;;;25.19;79.58;100470.31;4970725;28;20193;-76
2022/08/29 11:32:02;;;;;;;14.50;6.03;;;;;;;25.31;79.44;100458.03;4975422;28;20197;-75
2022/08/29 11:34:42;;;;;;;10.00;4.23;;;;;;;25.26;78.83;100442.47;4981089;28;20221;-74
2022/08/29 11:37:16;;;;;;;7.97;4.50;;;;;;;25.40;78.40;100453.91;4962943;28;20681;-76